createdAt,value
2022-12-11T00:00:53.126Z,12.90
2022-12-11T00:03:19.919Z,11.27
2022-12-11T00:05:46.921Z,11.63
2022-12-11T00:08:14.018Z,9.80
2022-12-11T00:10:47.029Z,11.40
2022-12-11T00:13:16.456Z,15.33
2022-12-11T00:15:45.163Z,8.40
2022-12-11T00:18:13.988Z,12.43
2022-12-11T00:20:40.971Z,8.70
2022-12-11T00:23:07.659Z,10.00
2022-12-11T00:25:34.306Z,14.00
2022-12-11T00:28:00.977Z,14.87
2022-12-11T00:30:27.595Z,12.43
2022-12-11T00:32:54.198Z,13.80
2022-12-11T00:35:20.783Z,12.37
2022-12-11T00:37:47.378Z,10.63
2022-12-11T00:40:13.965Z,10.90
2022-12-11T00:42:40.571Z,13.77
2022-12-11T00:45:07.920Z,14.50
2022-12-11T00:47:34.712Z,8.67
2022-12-11T00:50:01.286Z,10.57
2022-12-11T00:52:27.918Z,10.87
2022-12-11T00:54:54.512Z,10.83
2022-12-11T00:57:21.130Z,12.23
2022-12-11T00:59:47.837Z,9.67
2022-12-11T01:02:14.498Z,10.40
2022-12-11T01:04:41.161Z,9.93
2022-12-11T01:07:07.774Z,11.70
2022-12-11T01:09:53.066Z,9.93
2022-12-11T01:12:19.672Z,10.03
2022-12-11T01:14:46.276Z,13.20
2022-12-11T01:17:12.865Z,10.70
2022-12-11T01:19:39.523Z,10.63
2022-12-11T01:22:06.186Z,9.93
2022-12-11T01:24:35.065Z,10.53
2022-12-11T01:27:02.378Z,9.73
2022-12-11T01:29:28.983Z,16.13
2022-12-11T01:31:55.706Z,13.87
2022-12-11T01:34:22.363Z,11.00
2022-12-11T01:36:48.931Z,13.77
2022-12-11T01:39:15.495Z,10.83
2022-12-11T01:41:42.063Z,16.57
2022-12-11T01:44:28.566Z,11.83
2022-12-11T01:46:55.187Z,13.83
2022-12-11T01:49:25.837Z,10.77
2022-12-11T01:52:17.725Z,10.37
2022-12-11T01:54:44.564Z,10.90
2022-12-11T01:57:13.233Z,13.23
2022-12-11T01:59:42.621Z,10.30
2022-12-11T02:02:27.835Z,9.93
2022-12-11T02:04:54.486Z,12.57
2022-12-11T02:07:21.213Z,9.97
2022-12-11T02:09:48.513Z,12.40
2022-12-11T02:12:21.015Z,10.80
2022-12-11T02:14:59.577Z,10.50
2022-12-11T02:18:12.960Z,12.50
2022-12-11T02:21:06.451Z,11.47
2022-12-11T02:23:57.061Z,12.47
2022-12-11T02:26:51.391Z,14.93
2022-12-11T02:29:39.299Z,12.67
2022-12-11T02:32:31.616Z,12.20
2022-12-11T02:35:13.490Z,12.13
2022-12-11T02:37:43.557Z,12.13
2022-12-11T02:40:13.435Z,12.50
2022-12-11T02:42:43.301Z,11.43
2022-12-11T02:45:12.450Z,12.30
2022-12-11T02:47:40.085Z,12.30
2022-12-11T02:50:10.579Z,12.37
2022-12-11T02:52:39.123Z,12.60
2022-12-11T02:55:08.435Z,12.93
2022-12-11T02:57:42.412Z,12.83
2022-12-11T03:00:09.743Z,12.47
2022-12-11T03:02:37.499Z,12.17
2022-12-11T03:05:04.756Z,12.17
2022-12-11T03:07:37.766Z,12.33
2022-12-11T03:10:07.038Z,14.57
2022-12-11T03:12:38.635Z,12.17
2022-12-11T03:15:10.067Z,13.07
2022-12-11T03:18:02.521Z,13.30
2022-12-11T03:20:45.691Z,16.57
2022-12-11T03:23:28.563Z,12.47
2022-12-11T03:25:59.291Z,11.73
2022-12-11T03:28:40.020Z,12.00
2022-12-11T03:31:11.618Z,12.10
2022-12-11T03:33:41.790Z,11.63
2022-12-11T03:36:17.378Z,11.30
2022-12-11T03:38:58.240Z,10.53
2022-12-11T03:41:28.052Z,11.20
2022-12-11T03:43:58.321Z,10.90
2022-12-11T03:46:34.187Z,11.47
2022-12-11T03:49:12.913Z,10.87
2022-12-11T03:51:42.249Z,10.43
2022-12-11T03:54:10.122Z,10.87
2022-12-11T03:56:38.739Z,11.57
2022-12-11T03:59:05.384Z,12.00
2022-12-11T04:01:31.994Z,10.63
2022-12-11T04:04:01.463Z,10.40
2022-12-11T04:06:28.086Z,11.37
2022-12-11T04:08:54.676Z,11.40
2022-12-11T04:11:36.406Z,12.13
2022-12-11T04:14:32.248Z,10.90
2022-12-11T04:17:00.539Z,11.50
2022-12-11T04:19:45.978Z,12.77
2022-12-11T04:22:34.476Z,11.17
2022-12-11T04:25:02.404Z,11.27
2022-12-11T04:27:47.680Z,10.53
2022-12-11T04:30:28.119Z,11.70
2022-12-11T04:32:59.024Z,11.97
2022-12-11T04:35:25.651Z,10.87
2022-12-11T04:37:52.393Z,11.10
2022-12-11T04:40:19.551Z,12.97
2022-12-11T04:42:46.230Z,10.70
2022-12-11T04:45:13.923Z,11.63
2022-12-11T04:47:41.251Z,11.23
2022-12-11T04:50:10.321Z,12.30
2022-12-11T04:52:36.932Z,11.73
2022-12-11T04:55:09.148Z,11.57
2022-12-11T04:57:36.042Z,12.27
2022-12-11T05:00:05.553Z,11.57
2022-12-11T05:02:35.957Z,12.33
2022-12-11T05:05:04.406Z,13.23
2022-12-11T05:07:31.256Z,12.20
2022-12-11T05:09:58.006Z,17.63
2022-12-11T05:12:24.655Z,13.17
2022-12-11T05:14:55.310Z,11.17
2022-12-11T05:17:22.559Z,12.43
2022-12-11T05:19:50.976Z,12.13
2022-12-11T05:22:18.639Z,13.00
2022-12-11T05:24:45.679Z,11.53
2022-12-11T05:27:12.519Z,12.23
2022-12-11T05:29:39.159Z,12.07
2022-12-11T05:32:05.849Z,15.57
2022-12-11T05:34:32.923Z,11.40
2022-12-11T05:36:59.764Z,11.47
2022-12-11T05:39:26.353Z,12.57
2022-12-11T05:41:52.910Z,13.33
2022-12-11T05:44:19.622Z,14.47
2022-12-11T05:46:46.326Z,12.57
2022-12-11T05:49:13.080Z,12.60
2022-12-11T05:51:41.126Z,12.67
2022-12-11T05:54:07.879Z,13.00
2022-12-11T05:56:35.520Z,15.10
2022-12-11T05:59:04.160Z,14.50
2022-12-11T06:01:37.758Z,12.60
2022-12-11T06:04:06.693Z,12.90
2022-12-11T06:06:33.743Z,11.93
2022-12-11T06:09:01.181Z,12.27
2022-12-11T06:11:29.637Z,12.57
2022-12-11T06:13:56.578Z,14.33
2022-12-11T06:16:24.705Z,13.03
2022-12-11T06:18:52.286Z,14.60
2022-12-11T06:21:25.791Z,13.20
2022-12-11T06:23:54.254Z,12.27
2022-12-11T06:26:21.903Z,14.03
2022-12-11T06:28:49.074Z,12.47
2022-12-11T06:31:16.268Z,15.03
2022-12-11T06:33:43.368Z,18.20
2022-12-11T06:36:16.159Z,13.27
2022-12-11T06:38:43.338Z,13.30
2022-12-11T06:41:11.575Z,14.07
2022-12-11T06:43:40.176Z,13.90
2022-12-11T06:46:08.683Z,14.53
2022-12-11T06:48:37.858Z,25.97
2022-12-11T06:51:08.557Z,22.10
2022-12-11T06:53:35.403Z,19.17
2022-12-11T06:56:16.018Z,15.23
2022-12-11T06:58:43.984Z,14.47
2022-12-11T07:01:16.625Z,19.10
2022-12-11T07:03:43.386Z,19.03
2022-12-11T07:06:10.486Z,17.93
2022-12-11T07:08:37.466Z,14.50
2022-12-11T07:11:06.494Z,14.53
2022-12-11T07:13:33.712Z,17.47
2022-12-11T07:16:01.798Z,19.87
2022-12-11T07:18:28.473Z,17.87
2022-12-11T07:20:57.580Z,15.47
2022-12-11T07:23:24.304Z,16.00
2022-12-11T07:25:50.931Z,16.40
2022-12-11T07:28:17.506Z,13.63
2022-12-11T07:30:44.135Z,14.10
2022-12-11T07:33:10.727Z,14.57
2022-12-11T07:35:37.602Z,18.03
2022-12-11T07:38:04.284Z,13.40
2022-12-11T07:40:31.620Z,17.03
2022-12-11T07:42:58.194Z,15.23
2022-12-11T07:45:26.271Z,16.47
2022-12-11T07:47:53.008Z,14.67
2022-12-11T07:50:19.741Z,16.97
2022-12-11T07:52:46.528Z,13.53
2022-12-11T07:55:13.371Z,15.83
2022-12-11T07:57:40.543Z,16.10
2022-12-11T08:00:07.763Z,14.10
2022-12-11T08:02:39.149Z,14.40
2022-12-11T08:05:06.387Z,16.07
2022-12-11T08:07:35.460Z,15.33
2022-12-11T08:10:04.137Z,15.03
2022-12-11T08:12:30.765Z,13.57
2022-12-11T08:14:57.410Z,14.40
2022-12-11T08:17:29.470Z,13.67
2022-12-11T08:19:57.565Z,13.93
2022-12-11T08:22:24.200Z,16.37
2022-12-11T08:24:51.028Z,14.70
2022-12-11T08:27:17.779Z,14.30
2022-12-11T08:29:45.659Z,13.40
2022-12-11T08:32:13.619Z,13.63
2022-12-11T08:34:40.465Z,13.73
2022-12-11T08:37:07.033Z,12.40
2022-12-11T08:39:33.673Z,15.27
2022-12-11T08:42:00.316Z,15.57
2022-12-11T08:44:27.951Z,14.93
2022-12-11T08:46:54.548Z,14.07
2022-12-11T08:49:21.160Z,14.53
2022-12-11T08:51:48.099Z,14.27
2022-12-11T08:54:14.860Z,13.20
2022-12-11T08:56:41.609Z,15.00
2022-12-11T08:59:08.218Z,12.83
2022-12-11T09:01:37.647Z,12.90
2022-12-11T09:04:04.412Z,12.97
2022-12-11T09:06:33.223Z,13.20
2022-12-11T09:09:01.620Z,12.43
2022-12-11T09:11:32.060Z,14.23
2022-12-11T09:14:03.576Z,12.80
2022-12-11T09:16:37.500Z,14.77
2022-12-11T09:19:04.185Z,13.50
2022-12-11T09:21:30.956Z,12.33
2022-12-11T09:23:59.497Z,12.17
2022-12-11T09:26:27.827Z,12.70
2022-12-11T09:28:55.301Z,12.93
2022-12-11T09:31:30.359Z,13.53
2022-12-11T09:34:02.519Z,13.07
2022-12-11T09:36:29.645Z,12.73
2022-12-11T09:38:59.497Z,12.63
2022-12-11T09:41:36.178Z,12.37
2022-12-11T09:44:21.649Z,13.53
2022-12-11T09:46:49.671Z,12.80
2022-12-11T09:49:28.375Z,15.57
2022-12-11T09:52:13.942Z,12.90
2022-12-11T09:54:52.770Z,13.83
2022-12-11T09:57:41.628Z,12.97
2022-12-11T10:00:30.453Z,12.87
2022-12-11T10:03:30.947Z,15.83
2022-12-11T10:06:22.912Z,14.33
2022-12-11T10:09:11.627Z,15.13
2022-12-11T10:12:03.203Z,14.90
2022-12-11T10:14:45.959Z,19.20
2022-12-11T10:17:15.593Z,14.20
2022-12-11T10:19:42.641Z,19.37
2022-12-11T10:22:19.041Z,16.30
2022-12-11T10:25:12.392Z,17.07
2022-12-11T10:27:44.683Z,19.33
2022-12-11T10:30:24.700Z,17.60
2022-12-11T10:33:04.950Z,15.30
2022-12-11T10:35:35.517Z,14.30
2022-12-11T10:38:30.365Z,14.83
2022-12-11T10:41:09.602Z,16.90
2022-12-11T10:43:48.526Z,19.00
2022-12-11T10:46:24.905Z,18.50
2022-12-11T10:48:59.879Z,13.30
2022-12-11T10:51:32.679Z,21.60
2022-12-11T10:54:24.932Z,17.90
2022-12-11T10:56:51.751Z,15.87
2022-12-11T10:59:49.215Z,17.30
2022-12-11T11:02:36.657Z,16.03
2022-12-11T11:05:16.935Z,19.23
2022-12-11T11:07:43.869Z,16.07
2022-12-11T11:10:10.623Z,19.77
2022-12-11T11:12:46.871Z,15.80
2022-12-11T11:15:22.526Z,12.47
2022-12-11T11:18:07.200Z,24.77
2022-12-11T11:20:34.782Z,13.10
2022-12-11T11:23:04.867Z,14.70
2022-12-11T11:25:33.545Z,13.77
2022-12-11T11:28:15.311Z,11.20
2022-12-11T11:30:42.402Z,14.00
2022-12-11T11:33:17.479Z,13.97
2022-12-11T11:35:59.136Z,13.73
2022-12-11T11:38:30.782Z,21.23
2022-12-11T11:41:19.085Z,21.50
2022-12-11T11:43:56.650Z,21.40
2022-12-11T11:46:49.380Z,26.07
2022-12-11T11:49:44.336Z,17.97
2022-12-11T11:52:34.549Z,27.27
2022-12-11T11:55:17.304Z,16.60
2022-12-11T11:57:55.562Z,22.00
2022-12-11T12:00:28.819Z,13.83
2022-12-11T12:03:03.480Z,13.37
2022-12-11T12:06:08.827Z,13.00
2022-12-11T12:08:49.811Z,19.83
2022-12-11T12:11:19.510Z,31.70
2022-12-11T12:14:50.735Z,25.87
2022-12-11T12:17:04.986Z,26.57
2022-12-11T12:20:04.802Z,15.40
2022-12-11T12:22:48.251Z,25.43
2022-12-11T12:25:27.092Z,15.00
2022-12-11T12:28:31.396Z,15.13
2022-12-11T12:31:13.242Z,17.33
2022-12-11T12:34:04.644Z,22.57
2022-12-11T12:36:51.280Z,16.27
2022-12-11T12:39:36.691Z,11.63
2022-12-11T12:42:21.213Z,13.23
2022-12-11T12:44:59.387Z,16.50
2022-12-11T12:47:30.731Z,16.57
2022-12-11T12:49:59.723Z,16.53
2022-12-11T12:52:35.173Z,19.40
2022-12-11T12:55:22.842Z,22.20
2022-12-11T12:57:57.527Z,14.63
2022-12-11T13:00:28.406Z,13.97
2022-12-11T13:02:56.269Z,14.43
2022-12-11T13:05:33.219Z,18.97
2022-12-11T13:08:04.723Z,23.53
2022-12-11T13:10:40.620Z,14.13
2022-12-11T13:13:38.253Z,15.37
2022-12-11T13:16:17.090Z,12.30
2022-12-11T13:18:47.424Z,12.97
2022-12-11T13:21:31.210Z,16.47
2022-12-11T13:24:15.498Z,22.30
2022-12-11T13:26:45.068Z,14.57
2022-12-11T13:29:36.498Z,21.13
2022-12-11T13:32:09.140Z,15.40
2022-12-11T13:34:42.070Z,15.43
2022-12-11T13:37:29.737Z,24.93
2022-12-11T13:39:57.215Z,16.13
2022-12-11T13:42:48.250Z,17.07
2022-12-11T13:45:49.858Z,15.67
2022-12-11T13:48:24.520Z,12.70
2022-12-11T13:50:53.256Z,24.00
2022-12-11T13:53:21.360Z,19.97
2022-12-11T13:56:01.028Z,16.83
2022-12-11T13:58:28.827Z,14.50
2022-12-11T14:01:07.872Z,14.03
2022-12-11T14:03:35.294Z,18.70
2022-12-11T14:06:03.654Z,13.20
2022-12-11T14:08:35.868Z,11.07
2022-12-11T14:11:03.234Z,14.00
2022-12-11T14:13:37.311Z,13.43
2022-12-11T14:16:06.061Z,12.63
2022-12-11T14:18:35.529Z,15.33
2022-12-11T14:21:05.583Z,15.13
2022-12-11T14:23:34.762Z,17.60
2022-12-11T14:26:17.447Z,13.23
2022-12-11T14:28:44.605Z,15.37
2022-12-11T14:31:16.692Z,17.23
2022-12-11T14:33:53.825Z,20.60
2022-12-11T14:36:21.679Z,20.60
2022-12-11T14:38:56.158Z,16.63
2022-12-11T14:41:42.646Z,17.37
2022-12-11T14:44:15.416Z,16.47
2022-12-11T14:46:55.786Z,17.13
2022-12-11T14:49:46.457Z,17.43
2022-12-11T14:52:24.148Z,19.83
2022-12-11T14:54:56.835Z,17.63
2022-12-11T14:57:28.100Z,14.63
2022-12-11T14:59:56.249Z,14.60
2022-12-11T15:02:30.054Z,16.60
2022-12-11T15:05:22.359Z,17.33
2022-12-11T15:08:02.464Z,20.63
2022-12-11T15:10:37.204Z,18.80
2022-12-11T15:13:08.221Z,22.03
2022-12-11T15:15:45.529Z,25.07
2022-12-11T15:18:29.586Z,21.20
2022-12-11T15:20:59.482Z,16.23
2022-12-11T15:23:27.501Z,20.40
2022-12-11T15:25:57.562Z,18.83
2022-12-11T15:28:30.241Z,18.03
2022-12-11T15:30:59.935Z,19.23
2022-12-11T15:33:32.510Z,15.03
2022-12-11T15:36:06.259Z,15.13
2022-12-11T15:38:42.130Z,23.07
2022-12-11T15:41:17.651Z,19.87
2022-12-11T15:43:44.964Z,22.70
2022-12-11T15:46:11.752Z,23.57
2022-12-11T15:48:38.371Z,20.60
2022-12-11T15:51:05.366Z,14.33
2022-12-11T15:53:31.959Z,17.90
2022-12-11T15:55:59.864Z,22.67
2022-12-11T15:58:27.385Z,19.47
2022-12-11T16:00:54.784Z,16.77
2022-12-11T16:03:23.492Z,16.83
2022-12-11T16:05:52.062Z,18.03
2022-12-11T16:08:21.878Z,15.53
2022-12-11T16:10:49.267Z,15.23
2022-12-11T16:13:16.012Z,21.43
2022-12-11T16:15:44.852Z,18.70
2022-12-11T16:18:17.341Z,15.17
2022-12-11T16:20:45.130Z,21.43
2022-12-11T16:23:13.396Z,20.57
2022-12-11T16:25:41.787Z,17.17
2022-12-11T16:28:10.327Z,18.70
2022-12-11T16:30:37.948Z,18.23
2022-12-11T16:33:12.137Z,25.87
2022-12-11T16:35:40.189Z,21.80
2022-12-11T16:38:07.707Z,17.00
2022-12-11T16:40:34.364Z,18.20
2022-12-11T16:43:00.944Z,19.53
2022-12-11T16:45:28.015Z,18.70
2022-12-11T16:47:54.997Z,17.53
2022-12-11T16:50:22.317Z,17.13
2022-12-11T16:52:49.129Z,17.50
2022-12-11T16:55:15.848Z,18.43
2022-12-11T16:57:42.638Z,20.53
2022-12-11T17:00:12.694Z,22.37
2022-12-11T17:02:39.877Z,17.07
2022-12-11T17:05:06.742Z,20.03
2022-12-11T17:07:33.629Z,18.93
2022-12-11T17:10:02.736Z,27.03
2022-12-11T17:12:30.280Z,21.43
2022-12-11T17:14:57.176Z,28.80
2022-12-11T17:17:24.751Z,25.23
2022-12-11T17:19:51.514Z,19.80
2022-12-11T17:22:18.180Z,20.03
2022-12-11T17:24:44.750Z,24.73
2022-12-11T17:27:11.387Z,25.20
2022-12-11T17:29:38.109Z,20.13
2022-12-11T17:32:05.265Z,17.07
2022-12-11T17:34:37.888Z,16.67
2022-12-11T17:37:05.834Z,21.43
2022-12-11T17:39:32.463Z,21.63
2022-12-11T17:41:59.084Z,18.43
2022-12-11T17:44:26.528Z,23.73
2022-12-11T17:46:53.620Z,23.73
2022-12-11T17:49:20.392Z,24.50
2022-12-11T17:51:47.827Z,21.60
2022-12-11T17:54:14.865Z,22.70
2022-12-11T17:56:41.598Z,24.80
2022-12-11T17:59:08.268Z,23.33
2022-12-11T18:01:35.063Z,27.20
2022-12-11T18:04:02.235Z,24.07
2022-12-11T18:06:29.848Z,22.00
2022-12-11T18:08:56.752Z,20.97
2022-12-11T18:11:24.111Z,21.83
2022-12-11T18:13:52.829Z,23.60
2022-12-11T18:16:29.033Z,21.63
2022-12-11T18:18:56.448Z,28.13
2022-12-11T18:21:26.054Z,20.93
2022-12-11T18:23:53.532Z,24.43
2022-12-11T18:26:20.757Z,18.63
2022-12-11T18:28:48.400Z,23.43
2022-12-11T18:31:15.896Z,21.23
2022-12-11T18:33:43.913Z,20.03
2022-12-11T18:36:12.364Z,18.63
2022-12-11T18:38:39.782Z,20.43
2022-12-11T18:41:08.285Z,18.47
2022-12-11T18:43:35.155Z,18.13
2022-12-11T18:46:06.505Z,18.90
2022-12-11T18:48:33.377Z,30.07
2022-12-11T18:51:00.179Z,23.63
2022-12-11T18:53:26.792Z,27.63
2022-12-11T18:55:58.654Z,34.83
2022-12-11T18:58:26.935Z,35.30
2022-12-11T19:00:53.570Z,29.83
2022-12-11T19:03:20.167Z,25.87
2022-12-11T19:05:46.761Z,34.07
2022-12-11T19:08:14.084Z,21.20
2022-12-11T19:10:42.966Z,22.37
2022-12-11T19:13:09.995Z,21.83
2022-12-11T19:15:41.225Z,23.37
2022-12-11T19:18:08.235Z,22.87
2022-12-11T19:21:06.428Z,22.67
2022-12-11T19:23:26.007Z,25.03
2022-12-11T19:25:52.702Z,24.50
2022-12-11T19:28:19.393Z,24.97
2022-12-11T19:30:48.687Z,21.63
2022-12-11T19:33:16.338Z,24.27
2022-12-11T19:35:43.180Z,24.93
2022-12-11T19:38:09.855Z,25.83
2022-12-11T19:40:41.107Z,23.70
2022-12-11T19:43:07.869Z,33.00
2022-12-11T19:45:34.711Z,25.87
2022-12-11T19:48:01.490Z,25.13
2022-12-11T19:50:28.197Z,25.80
2022-12-11T19:52:54.782Z,26.17
2022-12-11T19:55:21.568Z,25.50
2022-12-11T19:57:48.187Z,28.83
2022-12-11T20:00:15.194Z,26.10
2022-12-11T20:02:41.782Z,27.43
2022-12-11T20:05:09.312Z,26.83
2022-12-11T20:07:36.310Z,21.87
2022-12-11T20:10:03.323Z,23.17
2022-12-11T20:12:30.301Z,25.17
2022-12-11T20:14:56.866Z,25.90
2022-12-11T20:17:24.022Z,20.90
2022-12-11T20:19:50.626Z,25.27
2022-12-11T20:22:17.225Z,28.67
2022-12-11T20:24:44.089Z,23.47
2022-12-11T20:27:12.283Z,24.30
2022-12-11T20:29:39.164Z,23.80
2022-12-11T20:32:07.177Z,31.00
2022-12-11T20:34:33.867Z,24.13
2022-12-11T20:37:00.564Z,23.67
2022-12-11T20:39:27.269Z,19.77
2022-12-11T20:41:53.856Z,21.83
2022-12-11T20:44:20.618Z,23.77
2022-12-11T20:46:47.215Z,26.10
2022-12-11T20:49:13.830Z,19.47
2022-12-11T20:51:40.735Z,25.70
2022-12-11T20:54:07.720Z,21.30
2022-12-11T20:56:34.469Z,22.77
2022-12-11T20:59:01.298Z,23.93
2022-12-11T21:01:31.480Z,21.17
2022-12-11T21:03:59.625Z,21.67
2022-12-11T21:06:30.968Z,22.53
2022-12-11T21:09:00.240Z,21.90
2022-12-11T21:11:27.474Z,22.17
2022-12-11T21:13:54.363Z,26.10
2022-12-11T21:16:22.071Z,24.93
2022-12-11T21:18:48.950Z,23.07
2022-12-11T21:21:16.306Z,24.70
2022-12-11T21:23:43.483Z,27.03
2022-12-11T21:26:10.270Z,21.50
2022-12-11T21:28:36.982Z,20.90
2022-12-11T21:31:07.462Z,20.33
2022-12-11T21:33:34.681Z,21.80
2022-12-11T21:36:01.662Z,24.00
2022-12-11T21:38:28.632Z,22.47
2022-12-11T21:40:55.735Z,24.33
2022-12-11T21:43:22.999Z,22.10
2022-12-11T21:46:00.826Z,21.73
2022-12-11T21:48:28.513Z,22.37
2022-12-11T21:50:55.204Z,20.47
2022-12-11T21:53:21.796Z,22.77
2022-12-11T21:55:48.383Z,21.97
2022-12-11T21:58:15.594Z,23.93
2022-12-11T22:00:42.396Z,21.03
2022-12-11T22:03:09.133Z,23.53
2022-12-11T22:05:35.733Z,22.20
2022-12-11T22:08:02.447Z,21.03
2022-12-11T22:10:29.305Z,22.20
2022-12-11T22:12:55.941Z,23.70
2022-12-11T22:15:22.597Z,23.10
2022-12-11T22:17:49.383Z,25.93
2022-12-11T22:20:16.054Z,26.90
2022-12-11T22:22:42.662Z,23.10
2022-12-11T22:25:09.920Z,24.60
2022-12-11T22:27:36.771Z,23.50
2022-12-11T22:30:04.440Z,25.20
2022-12-11T22:32:31.050Z,23.13
2022-12-11T22:34:57.762Z,24.10
2022-12-11T22:37:24.914Z,24.07
2022-12-11T22:39:51.602Z,25.03
2022-12-11T22:42:18.237Z,20.33
2022-12-11T22:44:44.851Z,23.80
2022-12-11T22:47:11.508Z,23.03
2022-12-11T22:49:38.208Z,21.40
2022-12-11T22:52:05.011Z,23.77
2022-12-11T22:54:31.945Z,23.63
2022-12-11T22:56:58.526Z,25.70
2022-12-11T22:59:25.138Z,23.53
2022-12-11T23:01:51.791Z,21.03
2022-12-11T23:04:18.439Z,23.27
2022-12-11T23:06:45.039Z,24.87
2022-12-11T23:09:12.006Z,20.63
2022-12-11T23:11:39.899Z,20.90
2022-12-11T23:14:10.852Z,23.80
2022-12-11T23:16:37.515Z,20.83
2022-12-11T23:19:04.245Z,22.17
2022-12-11T23:21:31.097Z,24.33
2022-12-11T23:23:58.631Z,24.07
2022-12-11T23:26:27.180Z,21.87
2022-12-11T23:28:55.138Z,23.73
2022-12-11T23:31:22.872Z,21.80
2022-12-11T23:33:49.691Z,21.87
2022-12-11T23:36:16.402Z,26.27
2022-12-11T23:38:43.020Z,24.13
2022-12-11T23:41:11.961Z,22.13
2022-12-11T23:43:39.088Z,23.63
2022-12-11T23:46:15.715Z,36.57
2022-12-11T23:48:42.825Z,21.73
2022-12-11T23:51:12.833Z,23.20
2022-12-11T23:53:39.718Z,24.13
2022-12-11T23:56:13.220Z,24.23
2022-12-11T23:58:40.653Z,21.47
